TimeCST,TemperatureF,Dew PointF,Humidity,Sea Level PressureIn,VisibilityMPH,Wind Direction,Wind SpeedMPH,Gust SpeedMPH,PrecipitationIn,Events,Conditions,WindDirDegrees,DateUTC
12:52 AM,16.0,14.0,92,30.01,10.0,SSW,3.5,-,N/A,,Clear,200,2012-12-11 06:52:00
1:52 AM,17.1,14.0,88,30.02,10.0,SW,3.5,-,N/A,,Clear,230,2012-12-11 07:52:00
2:52 AM,17.1,14.0,88,30.03,9.0,SSW,6.9,-,N/A,,Clear,200,2012-12-11 08:52:00
3:52 AM,16.0,12.9,88,30.01,10.0,South,5.8,-,N/A,,Clear,180,2012-12-11 09:52:00
4:52 AM,17.1,12.9,84,30.01,10.0,South,6.9,-,N/A,,Clear,170,2012-12-11 10:52:00
5:52 AM,18.0,14.0,84,30.01,10.0,South,6.9,-,N/A,,Clear,190,2012-12-11 11:52:00
6:52 AM,18.0,12.9,81,30.01,10.0,South,9.2,-,N/A,,Clear,180,2012-12-11 12:52:00
7:52 AM,21.0,16.0,81,30.01,9.0,SSW,10.4,-,N/A,,Mostly Cloudy,200,2012-12-11 13:52:00
8:52 AM,23.0,16.0,74,30.01,10.0,SSW,13.8,21.9,N/A,,Overcast,210,2012-12-11 14:52:00
9:52 AM,26.1,18.0,71,30.03,10.0,SW,12.7,-,N/A,,Scattered Clouds,220,2012-12-11 15:52:00
10:52 AM,28.9,19.0,67,30.04,10.0,SW,12.7,-,N/A,,Clear,220,2012-12-11 16:52:00
11:52 AM,30.9,19.0,61,30.03,10.0,SW,12.7,-,N/A,,Clear,230,2012-12-11 17:52:00
1:52 PM,34.0,21.0,59,30.02,10.0,WSW,13.8,-,N/A,,Scattered Clouds,250,2012-12-11 19:52:00
2:52 PM,35.1,21.9,59,30.02,10.0,SW,11.5,-,N/A,,Clear,230,2012-12-11 20:52:00
3:52 PM,34.0,21.0,59,30.04,10.0,WSW,9.2,-,N/A,,Clear,240,2012-12-11 21:52:00
4:52 PM,32.0,21.9,66,30.06,10.0,SSW,9.2,-,N/A,,Clear,200,2012-12-11 22:52:00
5:52 PM,32.0,21.9,66,30.06,10.0,South,11.5,-,N/A,,Mostly Cloudy,190,2012-12-11 23:52:00
6:52 PM,32.0,21.9,66,30.07,10.0,SSW,11.5,-,N/A,,Overcast,200,2012-12-12 00:52:00
7:52 PM,33.1,21.0,61,30.08,10.0,SSW,15.0,-,N/A,,Partly Cloudy,200,2012-12-12 01:52:00
8:52 PM,32.0,21.0,64,30.10,10.0,SSW,13.8,-,N/A,,Clear,210,2012-12-12 02:52:00
9:52 PM,32.0,21.0,64,30.11,10.0,SSW,12.7,-,N/A,,Clear,210,2012-12-12 03:52:00
10:52 PM,30.9,21.0,67,30.14,10.0,SSW,9.2,-,N/A,,Clear,210,2012-12-12 04:52:00
11:52 PM,30.0,19.9,66,30.14,10.0,SSW,9.2,-,N/A,,Clear,210,2012-12-12 05:52:00